createdAt,value
2017-12-01T00:01:34.386Z,99530.95
2017-12-01T00:04:02.114Z,99531.69
2017-12-01T00:06:39.236Z,99525.55
2017-12-01T00:09:06.704Z,99526.23
2017-12-01T00:11:34.162Z,99525.83
2017-12-01T00:14:01.689Z,99527.38
2017-12-01T00:16:29.196Z,99525.95
2017-12-01T00:18:56.677Z,99534.49
2017-12-01T00:21:24.167Z,99534.74
2017-12-01T00:23:51.730Z,99529.20
2017-12-01T00:26:19.196Z,99537.05
2017-12-01T00:28:46.676Z,99533.22
2017-12-01T00:31:14.198Z,99537.39
2017-12-01T00:33:41.655Z,99532.00
2017-12-01T00:36:09.137Z,99534.13
2017-12-01T00:38:36.670Z,99536.86
2017-12-01T00:41:04.196Z,99536.34
2017-12-01T00:43:31.633Z,99546.65
2017-12-01T00:45:59.088Z,99544.00
2017-12-01T00:48:26.540Z,99552.13
2017-12-01T00:50:54.038Z,99553.41
2017-12-01T00:53:21.535Z,99556.52
2017-12-01T00:55:48.972Z,99554.39
2017-12-01T00:58:16.655Z,99559.67
2017-12-01T01:00:44.138Z,99562.32
2017-12-01T01:03:11.580Z,99569.23
2017-12-01T01:05:39.038Z,99566.58
2017-12-01T01:08:06.563Z,99572.16
2017-12-01T01:10:34.024Z,99566.03
2017-12-01T01:13:01.585Z,99569.55
2017-12-01T01:15:29.811Z,99574.94
2017-12-01T01:17:57.270Z,99577.23
2017-12-01T01:20:24.724Z,99573.92
2017-12-01T01:22:52.178Z,99582.80
2017-12-01T01:25:19.640Z,99574.90
2017-12-01T01:27:47.089Z,99579.28
2017-12-01T01:30:14.546Z,99582.14
2017-12-01T01:32:42.197Z,99585.66
2017-12-01T01:35:09.647Z,99578.88
2017-12-01T01:37:37.096Z,99586.47
2017-12-01T01:40:04.634Z,99588.20
2017-12-01T01:42:32.111Z,99587.91
2017-12-01T01:44:59.578Z,99592.45
2017-12-01T01:47:36.684Z,99595.89
2017-12-01T01:50:04.188Z,99596.21
2017-12-01T01:52:31.706Z,99595.39
2017-12-01T01:54:59.529Z,99600.27
2017-12-01T01:57:26.997Z,99600.75
2017-12-01T01:59:54.459Z,99602.43
2017-12-01T02:02:21.926Z,99602.18
2017-12-01T02:04:49.397Z,99604.87
2017-12-01T02:07:16.916Z,99607.59
2017-12-01T02:09:44.351Z,99612.48
2017-12-01T02:12:11.839Z,99608.64
2017-12-01T02:14:39.314Z,99607.75
2017-12-01T02:17:06.761Z,99611.80
2017-12-01T02:19:34.218Z,99611.38
2017-12-01T02:22:01.694Z,99615.14
2017-12-01T02:24:29.138Z,99615.47
2017-12-01T02:26:56.612Z,99609.70
2017-12-01T02:29:24.176Z,99613.67
2017-12-01T02:31:51.660Z,99607.66
2017-12-01T02:34:19.148Z,99613.14
2017-12-01T02:36:46.638Z,99613.02
2017-12-01T02:39:14.090Z,99616.90
2017-12-01T02:41:41.605Z,99619.31
2017-12-01T02:44:09.034Z,99616.94
2017-12-01T02:46:36.490Z,99622.69
2017-12-01T02:49:03.932Z,99630.02
2017-12-01T02:51:31.451Z,99632.22
2017-12-01T02:53:58.893Z,99630.91
2017-12-01T02:56:26.373Z,99635.73
2017-12-01T02:58:53.884Z,99639.70
2017-12-01T03:01:21.310Z,99647.79
2017-12-01T03:03:48.758Z,99639.25
2017-12-01T03:06:17.103Z,99649.59
2017-12-01T03:08:45.437Z,99651.97
2017-12-01T03:11:12.887Z,99652.25
2017-12-01T03:13:40.330Z,99649.44
2017-12-01T03:16:07.817Z,99656.55
2017-12-01T03:18:35.330Z,99655.73
2017-12-01T03:21:02.789Z,99660.91
2017-12-01T03:23:30.327Z,99666.22
2017-12-01T03:25:57.790Z,99670.19
2017-12-01T03:28:30.274Z,99676.50
2017-12-01T03:30:57.782Z,99678.78
2017-12-01T03:33:25.224Z,99683.16
2017-12-01T03:35:52.692Z,99684.09
2017-12-01T03:38:20.146Z,99686.88
2017-12-01T03:40:47.645Z,99690.51
2017-12-01T03:43:15.098Z,99693.73
2017-12-01T03:45:42.574Z,99695.33
2017-12-01T03:48:10.091Z,99707.39
2017-12-01T03:50:37.539Z,99701.88
2017-12-01T03:53:04.976Z,99709.17
2017-12-01T03:55:32.507Z,99714.05
2017-12-01T04:01:12.582Z,99723.03
2017-12-01T04:03:40.048Z,99716.33
2017-12-01T04:06:07.516Z,99724.02
2017-12-01T04:08:35.019Z,99716.06
2017-12-01T04:11:02.470Z,99719.36
2017-12-01T04:13:29.977Z,99718.01
2017-12-01T04:15:57.522Z,99720.47
2017-12-01T04:18:25.008Z,99729.05
2017-12-01T04:20:52.465Z,99735.82
2017-12-01T04:23:19.994Z,99741.39
2017-12-01T04:25:47.463Z,99739.66
2017-12-01T04:28:14.958Z,99740.70
2017-12-01T04:30:42.497Z,99747.47
2017-12-01T04:33:09.936Z,99744.97
2017-12-01T04:35:37.483Z,99746.69
2017-12-01T04:38:04.972Z,99750.03
2017-12-01T04:40:32.432Z,99751.09
2017-12-01T04:43:00.160Z,99749.84
2017-12-01T04:45:27.691Z,99755.98
2017-12-01T04:47:55.152Z,99758.23
2017-12-01T04:50:22.693Z,99762.22
2017-12-01T04:52:50.478Z,99768.23
2017-12-01T04:55:17.950Z,99770.55
2017-12-01T04:57:45.471Z,99775.95
2017-12-01T05:00:13.005Z,99779.15
2017-12-01T05:02:40.503Z,99784.38
2017-12-01T05:05:07.985Z,99786.52
2017-12-01T05:07:49.788Z,99791.75
2017-12-01T05:10:17.382Z,99800.28
2017-12-01T05:12:44.853Z,99799.88
2017-12-01T05:15:12.353Z,99806.47
2017-12-01T05:17:39.948Z,99808.38
2017-12-01T05:20:07.464Z,99802.02
2017-12-01T05:22:34.974Z,99809.81
2017-12-01T05:25:02.522Z,99809.44
2017-12-01T05:27:30.067Z,99813.85
2017-12-01T05:29:57.545Z,99816.03
2017-12-01T05:32:25.080Z,99811.01
2017-12-01T05:34:52.523Z,99813.42
2017-12-01T05:37:19.998Z,99821.45
2017-12-01T05:39:47.824Z,99823.98
2017-12-01T05:42:15.327Z,99828.64
2017-12-01T05:44:42.852Z,99832.80
2017-12-01T05:47:10.306Z,99842.91
2017-12-01T05:49:37.884Z,99855.97
2017-12-01T05:52:05.395Z,99859.00
2017-12-01T05:54:32.882Z,99864.28
2017-12-01T05:57:00.390Z,99865.73
2017-12-01T05:59:27.868Z,99870.70
2017-12-01T06:01:55.390Z,99870.64
2017-12-01T06:04:22.856Z,99869.45
2017-12-01T06:06:50.308Z,99867.32
2017-12-01T06:09:17.819Z,99867.73
2017-12-01T06:11:45.281Z,99873.30
2017-12-01T06:14:12.756Z,99880.02
2017-12-01T06:16:40.289Z,99881.50
2017-12-01T06:19:07.876Z,99887.98
2017-12-01T06:21:35.639Z,99890.65
2017-12-01T06:24:03.113Z,99883.88
2017-12-01T06:26:30.572Z,99890.36
2017-12-01T06:28:58.039Z,99896.11
2017-12-01T06:31:25.536Z,99894.16
2017-12-01T06:33:53.035Z,99905.59
2017-12-01T06:36:20.521Z,99904.73
2017-12-01T06:38:47.987Z,99910.20
2017-12-01T06:41:15.433Z,99912.82
2017-12-01T06:43:42.973Z,99913.90
2017-12-01T06:46:10.432Z,99915.09
2017-12-01T06:48:37.888Z,99924.36
2017-12-01T06:51:05.496Z,99928.95
2017-12-01T06:53:32.966Z,99930.44
2017-12-01T06:56:00.462Z,99929.94
2017-12-01T06:58:27.939Z,99940.34
2017-12-01T07:00:55.531Z,99939.59
2017-12-01T07:03:23.041Z,99936.91
2017-12-01T07:05:50.608Z,99943.31
2017-12-01T07:08:18.046Z,99948.31
2017-12-01T07:10:45.516Z,99948.25
2017-12-01T07:13:13.011Z,99952.53
2017-12-01T07:15:40.455Z,99956.09
2017-12-01T07:18:22.210Z,99962.41
2017-12-01T07:20:49.749Z,99957.58
2017-12-01T07:23:17.206Z,99955.20
2017-12-01T07:25:44.718Z,99961.50
2017-12-01T07:28:12.208Z,99964.79
2017-12-01T07:30:39.695Z,99967.41
2017-12-01T07:33:07.266Z,99977.14
2017-12-01T07:35:34.722Z,99979.41
2017-12-01T07:38:02.237Z,99986.66
2017-12-01T07:40:29.776Z,99982.08
2017-12-01T07:42:57.216Z,99989.76
2017-12-01T07:45:24.777Z,99992.72
2017-12-01T07:47:52.223Z,99991.47
2017-12-01T07:50:19.686Z,99993.86
2017-12-01T07:52:47.144Z,99992.78
2017-12-01T07:55:14.617Z,99992.17
2017-12-01T07:57:42.140Z,99994.32
2017-12-01T08:00:09.739Z,100000.69
2017-12-01T08:02:37.208Z,100008.42
2017-12-01T08:05:04.718Z,100008.09
2017-12-01T08:10:24.376Z,100017.98
2017-12-01T08:12:51.925Z,100018.55
2017-12-01T08:15:19.520Z,100022.71
2017-12-01T08:17:46.985Z,100023.27
2017-12-01T08:20:18.396Z,100026.11
2017-12-01T08:22:52.853Z,100027.46
2017-12-01T08:25:25.268Z,100031.55
2017-12-01T08:27:52.815Z,100040.64
2017-12-01T08:30:20.300Z,100044.84
2017-12-01T08:32:48.047Z,100049.41
2017-12-01T08:35:15.547Z,100059.26
2017-12-01T08:37:43.007Z,100060.13
2017-12-01T08:40:10.472Z,100062.08
2017-12-01T08:42:37.931Z,100068.61
2017-12-01T08:45:05.637Z,100075.86
2017-12-01T08:47:38.141Z,100080.97
2017-12-01T08:50:05.657Z,100083.99
2017-12-01T08:52:33.337Z,100078.49
2017-12-01T08:55:00.860Z,100087.72
2017-12-01T08:57:28.332Z,100094.00
2017-12-01T08:59:55.787Z,100098.72
2017-12-01T09:02:23.245Z,100098.67
2017-12-01T09:04:50.711Z,100102.48
2017-12-01T09:07:18.256Z,100104.25
2017-12-01T09:09:45.813Z,100107.48
2017-12-01T09:12:13.271Z,100110.83
2017-12-01T09:14:40.822Z,100113.94
2017-12-01T09:17:08.295Z,100115.10
2017-12-01T09:19:35.812Z,100117.47
2017-12-01T09:22:03.338Z,100124.79
2017-12-01T09:24:30.879Z,100127.70
2017-12-01T09:26:58.352Z,100124.67
2017-12-01T09:29:25.813Z,100128.94
2017-12-01T09:31:53.266Z,100128.83
2017-12-01T09:34:20.790Z,100138.95
2017-12-01T09:36:48.252Z,100137.42
2017-12-01T09:39:15.710Z,100135.26
2017-12-01T09:41:43.174Z,100141.02
2017-12-01T09:44:10.666Z,100147.31
2017-12-01T09:46:38.182Z,100145.98
2017-12-01T09:49:05.659Z,100149.11
2017-12-01T09:51:33.165Z,100157.86
2017-12-01T09:54:00.685Z,100153.20
2017-12-01T09:56:28.216Z,100160.16
2017-12-01T09:58:56.590Z,100157.70
2017-12-01T10:01:24.389Z,100165.14
2017-12-01T10:03:51.896Z,100159.38
2017-12-01T10:06:19.398Z,100168.16
2017-12-01T10:08:46.919Z,100166.22
2017-12-01T10:11:14.423Z,100172.13
2017-12-01T10:13:42.100Z,100173.95
2017-12-01T10:16:09.855Z,100178.99
2017-12-01T10:18:37.332Z,100181.70
2017-12-01T10:21:04.912Z,100186.41
2017-12-01T10:23:32.414Z,100184.81
2017-12-01T10:26:01.991Z,100183.13
2017-12-01T10:28:29.599Z,100189.64
2017-12-01T10:30:57.078Z,100185.84
2017-12-01T10:33:24.658Z,100192.38
2017-12-01T10:35:52.163Z,100191.38
2017-12-01T10:38:19.652Z,100195.50
2017-12-01T10:40:47.182Z,100201.42
2017-12-01T10:43:14.718Z,100198.36
2017-12-01T10:45:42.267Z,100207.27
2017-12-01T10:48:12.123Z,100205.37
2017-12-01T10:50:39.660Z,100199.30
2017-12-01T10:53:07.534Z,100211.30
2017-12-01T10:55:36.021Z,100212.88
2017-12-01T10:58:17.796Z,100206.19
2017-12-01T11:00:45.342Z,100202.95
2017-12-01T11:03:12.833Z,100211.27
2017-12-01T11:05:40.812Z,100207.16
2017-12-01T11:08:08.531Z,100211.91
2017-12-01T11:10:36.042Z,100219.30
2017-12-01T11:13:03.541Z,100226.39
2017-12-01T11:15:31.118Z,100224.05
2017-12-01T11:17:58.629Z,100228.97
2017-12-01T11:20:26.117Z,100231.25
2017-12-01T11:22:53.660Z,100223.55
2017-12-01T11:25:22.532Z,100222.58
2017-12-01T11:27:50.391Z,100226.63
2017-12-01T11:30:18.654Z,100224.94
2017-12-01T11:32:46.239Z,100236.06
2017-12-01T11:35:13.821Z,100232.11
2017-12-01T11:37:46.301Z,100234.38
2017-12-01T11:40:13.801Z,100243.39
2017-12-01T11:42:41.476Z,100239.85
2017-12-01T11:45:09.094Z,100238.47
2017-12-01T11:47:36.648Z,100244.47
2017-12-01T11:50:04.265Z,100242.92
2017-12-01T11:52:31.794Z,100242.41
2017-12-01T11:54:59.278Z,100249.09
2017-12-01T11:57:26.817Z,100243.67
2017-12-01T11:59:54.425Z,100255.95
2017-12-01T12:02:21.961Z,100243.96
2017-12-01T12:04:49.824Z,100252.25
2017-12-01T12:07:17.364Z,100256.80
2017-12-01T12:09:44.905Z,100255.61
2017-12-01T12:12:12.505Z,100256.42
2017-12-01T12:14:40.237Z,100263.41
2017-12-01T12:17:07.825Z,100252.62
2017-12-01T12:19:35.698Z,100261.08
2017-12-01T12:22:03.481Z,100264.39
2017-12-01T12:24:31.121Z,100254.55
2017-12-01T12:26:58.790Z,100256.03
2017-12-01T12:29:26.515Z,100258.08
2017-12-01T12:31:54.978Z,100258.24
2017-12-01T12:34:23.523Z,100257.20
2017-12-01T12:36:56.968Z,100264.17
2017-12-01T12:39:24.593Z,100270.50
2017-12-01T12:41:54.179Z,100273.75
2017-12-01T12:44:21.835Z,100277.98
2017-12-01T12:47:05.225Z,100278.23
2017-12-01T12:49:32.818Z,100279.86
2017-12-01T12:52:05.005Z,100282.98
2017-12-01T12:54:32.865Z,100282.47
2017-12-01T12:57:00.435Z,100281.28
2017-12-01T12:59:28.091Z,100281.48
2017-12-01T13:01:55.610Z,100295.09
2017-12-01T13:04:23.105Z,100293.77
2017-12-01T13:06:56.411Z,100293.15
2017-12-01T13:09:23.962Z,100295.36
2017-12-01T13:11:51.919Z,100294.84
2017-12-01T13:14:19.405Z,100294.63
2017-12-01T13:16:47.144Z,100296.84
2017-12-01T13:19:15.404Z,100290.95
2017-12-01T13:21:43.252Z,100300.36
2017-12-01T13:24:10.745Z,100302.61
2017-12-01T13:26:57.783Z,100299.46
2017-12-01T13:29:25.387Z,100302.20
2017-12-01T13:31:53.194Z,100305.39
2017-12-01T13:34:20.905Z,100303.41
2017-12-01T13:39:50.693Z,100311.89
2017-12-01T13:42:18.141Z,100313.31
2017-12-01T13:44:45.665Z,100317.71
2017-12-01T13:47:27.377Z,100319.75
2017-12-01T13:49:54.861Z,100322.06
2017-12-01T13:52:22.333Z,100322.84
2017-12-01T13:54:50.606Z,100321.06
2017-12-01T14:00:12.195Z,100331.06
2017-12-01T14:02:39.748Z,100330.20
2017-12-01T14:05:07.280Z,100331.56
2017-12-01T14:07:35.724Z,100334.42
2017-12-01T14:10:03.290Z,100335.29
2017-12-01T14:12:31.104Z,100334.59
2017-12-01T14:14:59.155Z,100345.33
2017-12-01T14:17:27.404Z,100349.27
2017-12-01T14:19:54.865Z,100342.19
2017-12-01T14:22:22.372Z,100357.14
2017-12-01T14:24:49.921Z,100363.12
2017-12-01T14:27:17.661Z,100362.50
2017-12-01T14:29:46.218Z,100363.94
2017-12-01T14:32:13.864Z,100368.08
2017-12-01T14:34:42.227Z,100370.55
2017-12-01T14:40:02.615Z,100378.98
2017-12-01T14:42:30.189Z,100388.39
2017-12-01T14:44:58.159Z,100382.91
2017-12-01T14:47:25.826Z,100386.12
2017-12-01T14:49:53.378Z,100394.10
2017-12-01T14:52:21.068Z,100393.75
2017-12-01T14:54:48.586Z,100401.09
2017-12-01T14:57:16.096Z,100405.21
2017-12-01T14:59:43.609Z,100412.53
2017-12-01T15:02:11.314Z,100416.91
2017-12-01T15:04:39.079Z,100425.54
2017-12-01T15:07:06.535Z,100429.42
2017-12-01T15:09:34.014Z,100434.55
2017-12-01T15:12:01.537Z,100434.36
2017-12-01T15:14:29.680Z,100429.66
2017-12-01T15:16:57.226Z,100429.83
2017-12-01T15:19:24.788Z,100444.14
2017-12-01T15:21:52.244Z,100452.94
2017-12-01T15:24:21.507Z,100450.19
2017-12-01T15:26:49.125Z,100450.86
2017-12-01T15:29:17.314Z,100455.58
2017-12-01T15:31:48.830Z,100466.38
2017-12-01T15:34:17.152Z,100471.13
2017-12-01T15:39:28.055Z,100472.92
2017-12-01T15:41:55.872Z,100467.19
2017-12-01T15:44:23.662Z,100467.19
2017-12-01T15:46:56.058Z,100474.70
2017-12-01T15:49:23.598Z,100473.39
2017-12-01T15:51:53.761Z,100477.73
2017-12-01T15:54:22.111Z,100481.37
2017-12-01T15:56:49.707Z,100481.75
2017-12-01T15:59:17.553Z,100495.61
2017-12-01T16:01:45.358Z,100488.72
2017-12-01T16:04:13.787Z,100494.78
2017-12-01T16:06:41.274Z,100498.98
2017-12-01T16:09:09.807Z,100505.83
2017-12-01T16:11:37.612Z,100498.80
2017-12-01T16:14:05.474Z,100505.65
2017-12-01T16:16:33.718Z,100507.53
2017-12-01T16:19:01.988Z,100516.71
2017-12-01T16:24:01.369Z,100519.11
2017-12-01T16:26:28.899Z,100515.29
2017-12-01T16:28:56.652Z,100518.58
2017-12-01T16:31:24.376Z,100525.33
2017-12-01T16:33:52.639Z,100521.20
2017-12-01T16:36:20.350Z,100522.52
2017-12-01T16:38:57.685Z,100531.56
2017-12-01T16:41:25.248Z,100539.70
2017-12-01T16:43:53.874Z,100537.08
2017-12-01T16:46:21.379Z,100534.72
2017-12-01T16:48:48.840Z,100540.95
2017-12-01T16:51:17.024Z,100541.48
2017-12-01T16:53:44.516Z,100541.77
2017-12-01T16:56:12.011Z,100541.06
2017-12-01T16:58:39.608Z,100549.75
2017-12-01T17:01:08.689Z,100551.55
2017-12-01T17:03:36.304Z,100556.19
2017-12-01T17:06:04.283Z,100555.89
2017-12-01T17:08:32.346Z,100560.13
2017-12-01T17:11:00.070Z,100558.47
2017-12-01T17:13:28.464Z,100562.00
2017-12-01T17:15:56.146Z,100565.81
2017-12-01T17:18:23.843Z,100568.51
2017-12-01T17:20:53.205Z,100575.11
2017-12-01T17:23:24.957Z,100579.57
2017-12-01T17:25:53.924Z,100590.66
2017-12-01T17:28:21.574Z,100591.44
2017-12-01T17:30:50.261Z,100598.79
2017-12-01T17:33:19.003Z,100591.03
2017-12-01T17:35:46.625Z,100603.70
2017-12-01T17:38:24.952Z,100605.21
2017-12-01T17:40:52.885Z,100600.55
2017-12-01T17:43:20.669Z,100604.78
2017-12-01T17:45:48.233Z,100604.38
2017-12-01T17:48:15.979Z,100612.84
2017-12-01T17:50:44.475Z,100616.55
2017-12-01T17:53:12.421Z,100616.84
2017-12-01T17:55:40.026Z,100624.01
2017-12-01T17:58:09.283Z,100630.80
2017-12-01T18:00:37.001Z,100633.41
2017-12-01T18:03:04.717Z,100645.94
2017-12-01T18:05:32.629Z,100642.11
2017-12-01T18:08:00.106Z,100651.41
2017-12-01T18:10:27.591Z,100645.38
2017-12-01T18:12:57.463Z,100644.97
2017-12-01T18:15:24.976Z,100649.49
2017-12-01T18:17:53.053Z,100654.03
2017-12-01T18:20:21.934Z,100654.25
2017-12-01T18:22:49.810Z,100665.95
2017-12-01T18:25:19.268Z,100660.18
2017-12-01T18:30:18.930Z,100655.90
2017-12-01T18:32:47.304Z,100664.33
2017-12-01T18:35:14.924Z,100666.12
2017-12-01T18:37:42.574Z,100670.17
2017-12-01T18:40:10.987Z,100662.83
2017-12-01T18:42:38.768Z,100666.58
2017-12-01T18:45:06.276Z,100665.27
2017-12-01T18:50:06.284Z,100676.05
2017-12-01T18:52:34.729Z,100678.76
2017-12-01T18:55:02.285Z,100681.67
2017-12-01T19:00:04.791Z,100687.11
2017-12-01T19:02:34.710Z,100691.94
2017-12-01T19:05:02.273Z,100698.16
2017-12-01T19:10:31.899Z,100707.98
2017-12-01T19:13:00.369Z,100715.47
2017-12-01T19:15:28.028Z,100717.16
2017-12-01T19:17:55.552Z,100715.59
2017-12-01T19:20:23.219Z,100723.34
2017-12-01T19:22:51.721Z,100721.63
2017-12-01T19:25:19.499Z,100731.33
2017-12-01T19:33:32.484Z,100736.80
2017-12-01T19:36:00.128Z,100739.34
2017-12-01T19:38:33.555Z,100744.19
2017-12-01T19:41:02.049Z,100744.75
2017-12-01T19:46:02.815Z,100753.33
2017-12-01T19:48:33.810Z,100748.98
2017-12-01T19:51:01.578Z,100752.95
2017-12-01T19:53:29.122Z,100761.12
2017-12-01T19:55:56.607Z,100760.64
2017-12-01T19:58:24.206Z,100751.23
2017-12-01T20:00:51.972Z,100761.58
2017-12-01T20:03:19.778Z,100761.66
2017-12-01T20:05:47.548Z,100762.78
2017-12-01T20:08:15.025Z,100770.05
2017-12-01T20:10:43.221Z,100763.94
2017-12-01T20:13:10.865Z,100765.86
2017-12-01T20:15:38.473Z,100775.41
2017-12-01T20:18:06.215Z,100765.25
2017-12-01T20:20:40.262Z,100761.59
2017-12-01T20:23:08.143Z,100764.73
2017-12-01T20:25:35.901Z,100765.48
2017-12-01T20:28:05.336Z,100763.23
2017-12-01T20:30:34.251Z,100763.80
2017-12-01T20:33:03.369Z,100773.56
2017-12-01T20:41:14.614Z,100783.36
2017-12-01T20:43:43.455Z,100787.19
2017-12-01T20:46:20.833Z,100782.24
2017-12-01T20:51:32.763Z,100783.44
2017-12-01T20:54:07.534Z,100788.80
2017-12-01T20:56:37.941Z,100784.92
2017-12-01T20:59:06.914Z,100784.95
2017-12-01T21:01:39.501Z,100789.08
2017-12-01T21:04:09.519Z,100792.14
2017-12-01T21:09:10.944Z,100796.73
2017-12-01T21:11:41.066Z,100800.94
2017-12-01T21:19:40.782Z,100793.92
2017-12-01T21:24:46.641Z,100793.95
2017-12-01T21:29:49.675Z,100800.23
2017-12-01T21:32:18.945Z,100804.38
2017-12-01T21:34:51.861Z,100803.67
2017-12-01T21:39:58.384Z,100810.25
2017-12-01T21:42:29.846Z,100808.06
2017-12-01T21:44:58.866Z,100808.36
2017-12-01T21:53:19.022Z,100808.23
2017-12-01T21:55:46.728Z,100817.69
2017-12-01T21:58:15.044Z,100820.63
2017-12-01T22:00:44.905Z,100826.58
2017-12-01T22:03:12.722Z,100831.44
2017-12-01T22:05:41.190Z,100830.70
2017-12-01T22:08:08.822Z,100838.39
2017-12-01T22:10:37.582Z,100833.23
2017-12-01T22:13:05.137Z,100834.38
2017-12-01T22:15:33.753Z,100829.11
2017-12-01T22:18:01.559Z,100833.70
2017-12-01T22:20:29.326Z,100835.70
2017-12-01T22:22:56.816Z,100835.70
2017-12-01T22:25:24.264Z,100846.30
2017-12-01T22:28:17.259Z,100843.87
2017-12-01T22:30:44.717Z,100846.59
2017-12-01T22:33:12.279Z,100845.59
2017-12-01T22:35:40.744Z,100846.58
2017-12-01T22:38:09.442Z,100851.38
2017-12-01T22:40:37.975Z,100848.17
2017-12-01T22:43:06.137Z,100849.38
2017-12-01T22:45:33.847Z,100853.96
2017-12-01T22:48:15.552Z,100854.18
2017-12-01T22:50:43.240Z,100853.20
2017-12-01T22:53:10.764Z,100854.94
2017-12-01T22:55:38.262Z,100853.83
2017-12-01T22:58:10.800Z,100855.38
2017-12-01T23:00:38.321Z,100860.66
2017-12-01T23:03:06.591Z,100867.09
2017-12-01T23:05:34.614Z,100865.17
2017-12-01T23:08:07.437Z,100870.84
2017-12-01T23:10:35.184Z,100862.38
2017-12-01T23:13:02.678Z,100868.05
2017-12-01T23:15:30.176Z,100872.48
2017-12-01T23:17:57.631Z,100877.03
2017-12-01T23:20:25.374Z,100878.77
2017-12-01T23:22:53.062Z,100884.41
2017-12-01T23:25:21.348Z,100885.41
2017-12-01T23:27:49.231Z,100881.98
2017-12-01T23:30:17.005Z,100881.50
2017-12-01T23:32:45.220Z,100878.16
2017-12-01T23:35:12.915Z,100882.89
2017-12-01T23:37:40.712Z,100882.71
2017-12-01T23:40:08.474Z,100881.39
2017-12-01T23:42:36.904Z,100881.04
2017-12-01T23:45:04.828Z,100879.46
2017-12-01T23:47:32.274Z,100890.20
2017-12-01T23:49:59.954Z,100892.34
2017-12-01T23:52:28.501Z,100893.01
2017-12-01T23:54:56.017Z,100900.28
2017-12-01T23:57:23.641Z,100905.41
2017-12-01T23:59:51.344Z,100908.50
